M I D A S
Marine Information and Data Acquisition System
Tripno 754 of the Zeeleeuw from 2004-07-30 06:45:21 to 2004-07-30 12:54:01
Back to CruiseResearch ActivitiesStationsMapUnderway DataData graphs

EquipmentUnitsComment
TimeDGPSUTC
LatitudeDGPSDM.mWGS84
LongitudeDGPSDM.mWGS84
HeadingGyrodeg 
SOGDGPSknotsSpeed over ground
COGDGPSdegCourse over ground
DepthEcho soundermeters200 kHz
Missing or incorrect values are displayed as -999
Navigation data collected by the RV Zeeleeuw from 2004-07-30 06:45:21 to 2004-07-30 12:54:01
                                                                                    Next 1000 lines
Time Latitude Longitude Heading SOG COG Depth
2004-07-30 06:45:29 51°16.303 2°53.304 339.6 13.2 328 11.7
2004-07-30 06:45:34 51°16.319 2°53.289 339.4 13.2 328 11.7
2004-07-30 06:45:38 51°16.331 2°53.277 339.4 13.2 328 11.7
2004-07-30 06:45:45 51°16.353 2°53.255 339.3 13.2 328 11.7
2004-07-30 06:45:49 51°16.366 2°53.244 339.5 13.2 330 11.8
2004-07-30 06:45:54 51°16.381 2°53.229 340.2 13.2 330 11.8
2004-07-30 06:45:59 51°16.398 2°53.215 341.1 13.1 331 11.9
2004-07-30 06:46:03 51°16.41 2°53.204 341.6 13.1 332 11.8
2004-07-30 06:46:10 51°16.433 2°53.187 342.2 13 334 11.9
2004-07-30 06:46:14 51°16.446 2°53.177 343.2 13 334 11.8
2004-07-30 06:46:19 51°16.463 2°53.164 343.3 13 334 11.8
2004-07-30 06:46:23 51°16.476 2°53.154 342.9 13 334 11.7
2004-07-30 06:46:29 51°16.495 2°53.138 342.1 13 332 11.7
2004-07-30 06:46:34 51°16.51 2°53.124 341.1 12.9 332 11.6
2004-07-30 06:46:39 51°16.526 2°53.11 340.4 12.9 331 11.6
2004-07-30 06:46:44 51°16.542 2°53.096 339.6 13 330 11.5
2004-07-30 06:46:48 51°16.554 2°53.085 339.1 12.9 330 11.4
2004-07-30 06:46:54 51°16.573 2°53.068 338.9 12.9 330 11.4
2004-07-30 06:46:59 51°16.588 2°53.054 338.8 13 330 11.2
2004-07-30 06:47:03 51°16.601 2°53.043 338.8 12.9 330 11.2
2004-07-30 06:47:09 51°16.62 2°53.025 338.8 12.9 330 11.1
2004-07-30 06:47:14 51°16.635 2°53.011 338.8 12.9 330 11
2004-07-30 06:47:19 51°16.651 2°52.997 338.9 12.9 330 11
2004-07-30 06:47:23 51°16.663 2°52.986 339.1 12.9 330 10.9
2004-07-30 06:47:29 51°16.682 2°52.97 339.2 12.8 330 10.8
2004-07-30 06:47:34 51°16.698 2°52.956 339.5 12.9 331 10.7
2004-07-30 06:47:38 51°16.71 2°52.945 339.6 12.8 331 10.7
2004-07-30 06:47:43 51°16.726 2°52.931 339.7 12.8 331 10.5
2004-07-30 06:47:49 51°16.744 2°52.915 339.8 12.8 331 10.4
2004-07-30 06:47:54 51°16.76 2°52.902 340 12.8 331 9.9
2004-07-30 06:47:59 51°16.775 2°52.888 340.1 12.7 331 9.7
2004-07-30 06:48:03 51°16.788 2°52.877 340.1 12.7 331 9.2
2004-07-30 06:48:09 51°16.806 2°52.86 339.7 12.6 330 8.9
2004-07-30 06:48:14 51°16.821 2°52.846 339.3 12.5 330 9
2004-07-30 06:48:18 51°16.832 2°52.835 338.5 12.5 328 8.9
2004-07-30 06:48:24 51°16.85 2°52.817 337.5 12.5 328 8.8
2004-07-30 06:48:29 51°16.865 2°52.802 336.9 12.6 327 8.8
2004-07-30 06:48:34 51°16.879 2°52.786 336.3 12.6 327 8.8
2004-07-30 06:48:39 51°16.894 2°52.771 336.1 12.6 326 8.9
2004-07-30 06:48:44 51°16.908 2°52.756 336.1 12.6 327 8.9
2004-07-30 06:48:49 51°16.923 2°52.741 336.5 12.7 328 9
2004-07-30 06:48:54 51°16.938 2°52.726 337 12.7 329 8.9
2004-07-30 06:48:59 51°16.953 2°52.712 338.1 12.7 329 9.2
2004-07-30 06:49:03 51°16.965 2°52.7 339 12.7 330 9.2
2004-07-30 06:49:09 51°16.984 2°52.683 339.7 12.8 330 9.5
2004-07-30 06:49:14 51°16.999 2°52.669 339.9 12.8 330 9.5
2004-07-30 06:49:19 51°17.015 2°52.655 339.9 12.8 330 9.7
2004-07-30 06:49:23 51°17.027 2°52.644 339.6 12.9 330 9.7
2004-07-30 06:49:29 51°17.046 2°52.626 339 12.9 329 9.5
2004-07-30 06:49:34 51°17.061 2°52.611 338.6 12.8 328 9.3
2004-07-30 06:49:39 51°17.076 2°52.596 338.2 12.8 328 9.2
2004-07-30 06:49:43 51°17.088 2°52.584 337.9 12.7 327 9.1
2004-07-30 06:49:49 51°17.106 2°52.566 337.6 12.7 327 9.1
2004-07-30 06:49:54 51°17.12 2°52.551 337.5 12.7 327 9.1
2004-07-30 06:49:59 51°17.135 2°52.536 337.3 12.7 327 9.3
2004-07-30 06:50:03 51°17.147 2°52.524 337.3 12.7 327 9.3
2004-07-30 06:50:10 51°17.168 2°52.503 337.6 12.8 328 9.3
2004-07-30 06:50:14 51°17.181 2°52.491 338.2 12.8 329 9.5
2004-07-30 06:50:19 51°17.196 2°52.477 339 12.8 329 9.4
2004-07-30 06:50:24 51°17.211 2°52.462 339.2 12.8 329 9.5
2004-07-30 06:50:29 51°17.226 2°52.448 339.3 12.8 329 9.5
2004-07-30 06:50:34 51°17.241 2°52.433 339 12.8 329 9.6
2004-07-30 06:50:39 51°17.256 2°52.418 338.9 12.8 328 9.7
2004-07-30 06:50:43 51°17.269 2°52.406 338.6 12.8 328 9.7
2004-07-30 06:50:49 51°17.287 2°52.388 338.2 12.9 328 9.8
2004-07-30 06:50:54 51°17.302 2°52.373 338 12.9 328 9.8
2004-07-30 06:50:59 51°17.317 2°52.357 337.8 12.9 327 9.8
2004-07-30 06:51:04 51°17.332 2°52.342 337.8 12.9 328 10
2004-07-30 06:51:09 51°17.347 2°52.327 338 12.8 328 9.9
2004-07-30 06:51:14 51°17.362 2°52.313 338.4 12.8 329 10
2004-07-30 06:51:19 51°17.378 2°52.298 338.8 12.8 329 10
2004-07-30 06:51:23 51°17.39 2°52.286 339 12.8 329 10
2004-07-30 06:51:29 51°17.408 2°52.268 339.3 12.8 329 9.9
2004-07-30 06:51:34 51°17.423 2°52.254 339.6 12.8 330 10
2004-07-30 06:51:39 51°17.438 2°52.239 339.6 12.8 329 10.1
2004-07-30 06:51:44 51°17.454 2°52.224 339.2 12.8 329 10.1
2004-07-30 06:51:49 51°17.469 2°52.209 338.8 12.8 328 10.1
2004-07-30 06:51:54 51°17.484 2°52.194 338.2 12.8 328 10.1
2004-07-30 06:51:59 51°17.498 2°52.179 338.2 12.8 328 10.2
2004-07-30 06:52:03 51°17.51 2°52.167 337.7 12.8 328 10
2004-07-30 06:52:09 51°17.528 2°52.148 337.5 12.8 327 10.1
2004-07-30 06:52:14 51°17.543 2°52.133 337.3 12.8 327 10.2
2004-07-30 06:52:19 51°17.558 2°52.118 337.5 12.8 328 10
2004-07-30 06:52:24 51°17.573 2°52.102 337.5 12.8 327 10
2004-07-30 06:52:29 51°17.588 2°52.087 337.7 12.8 328 10.1
2004-07-30 06:52:34 51°17.603 2°52.072 337.9 12.8 328 9.9
2004-07-30 06:52:39 51°17.618 2°52.056 338.2 12.8 328 10.2
2004-07-30 06:52:43 51°17.63 2°52.044 338.2 12.8 328 10.1
2004-07-30 06:52:49 51°17.648 2°52.026 338.2 12.8 328 10.1
2004-07-30 06:52:54 51°17.663 2°52.011 338.2 12.8 328 10
2004-07-30 06:52:59 51°17.678 2°51.996 338.3 12.8 328 10.1
2004-07-30 06:53:03 51°17.69 2°51.984 338.4 12.8 328 9.9
2004-07-30 06:53:09 51°17.708 2°51.966 338.5 12.8 328 10
2004-07-30 06:53:14 51°17.723 2°51.951 338.5 12.8 328 10.1
2004-07-30 06:53:19 51°17.738 2°51.936 338.5 12.7 328 9.9
2004-07-30 06:53:23 51°17.751 2°51.924 338.6 12.8 328 10
2004-07-30 06:53:29 51°17.768 2°51.906 338.7 12.8 328 10.1
2004-07-30 06:53:34 51°17.784 2°51.892 338.8 12.8 329 10
2004-07-30 06:53:39 51°17.799 2°51.878 338.8 12.8 329 10
2004-07-30 06:53:44 51°17.815 2°51.865 340.4 12.7 331 10
2004-07-30 06:53:49 51°17.831 2°51.855 344.7 12.5 339 10
2004-07-30 06:53:54 51°17.847 2°51.846 348.7 12.5 342 9.9
2004-07-30 06:53:59 51°17.864 2°51.839 352.5 12.5 344 10.1
2004-07-30 06:54:03 51°17.878 2°51.834 355 12.4 348 10
2004-07-30 06:54:09 51°17.898 2°51.828 357 12.4 348 10
2004-07-30 06:54:14 51°17.915 2°51.823 358 12.4 350 10
2004-07-30 06:54:19 51°17.932 2°51.819 358.9 12.4 351 10
2004-07-30 06:54:24 51°17.949 2°51.818 2.4 12.3 355 9.9
2004-07-30 06:54:29 51°17.966 2°51.818 6.5 12.3 1 10.1
2004-07-30 06:54:34 51°17.983 2°51.82 9.8 12.2 4 10.2
2004-07-30 06:54:39 51°18 2°51.823 12.7 12.2 6 10.3
2004-07-30 06:54:43 51°18.013 2°51.827 14.8 12.2 10 10.3
2004-07-30 06:54:49 51°18.033 2°51.835 17.8 12.1 16 10.1
2004-07-30 06:54:54 51°18.049 2°51.844 23.2 12.1 20 10.3
2004-07-30 06:54:59 51°18.064 2°51.855 27.6 12 23 10.1
2004-07-30 06:55:05 51°18.082 2°51.87 31 11.9 27 10.5
2004-07-30 06:55:09 51°18.093 2°51.882 34.5 12 32 10.4
2004-07-30 06:55:14 51°18.107 2°51.897 37.1 12.1 34 10.2
2004-07-30 06:55:19 51°18.12 2°51.914 41.3 12 39 10.5
2004-07-30 06:55:23 51°18.129 2°51.929 46.1 12 43 10.6
2004-07-30 06:55:29 51°18.143 2°51.952 49.9 12 49 10.6
2004-07-30 06:55:34 51°18.153 2°51.973 52.3 12 50 10.6
2004-07-30 06:55:39 51°18.163 2°51.995 55.7 12.1 54 10.5
2004-07-30 06:55:43 51°18.17 2°52.013 59.2 12.2 58 10.7
2004-07-30 06:55:49 51°18.18 2°52.041 62.2 12.2 61 10.7
2004-07-30 06:55:54 51°18.188 2°52.065 64.5 12.2 63 10.5
2004-07-30 06:55:59 51°18.195 2°52.09 65.8 12.2 64 10.7
2004-07-30 06:56:03 51°18.2 2°52.109 67.2 12.2 65 10.6
2004-07-30 06:56:08 51°18.207 2°52.134 68.1 12.2 67 10.6
2004-07-30 06:56:14 51°18.215 2°52.164 68.8 12.3 67 10.6
2004-07-30 06:56:19 51°18.221 2°52.189 68.9 12.3 67 10.6
2004-07-30 06:56:23 51°18.227 2°52.209 68.9 12.2 67 10.7
2004-07-30 06:56:29 51°18.235 2°52.239 69.1 12.3 67 10.6
2004-07-30 06:56:34 51°18.241 2°52.264 69.2 12.3 68 10.7
2004-07-30 06:56:39 51°18.247 2°52.289 70.1 12.3 69 10.6
2004-07-30 06:56:43 51°18.252 2°52.31 70.8 12.3 69 10.7
2004-07-30 06:56:49 51°18.259 2°52.34 71.1 12.4 69 10.6
2004-07-30 06:56:54 51°18.265 2°52.366 71.2 12.3 70 10.7
2004-07-30 06:56:59 51°18.271 2°52.391 72.1 12.3 70 10.7
2004-07-30 06:57:04 51°18.276 2°52.417 72.2 12.4 71 10.7
2004-07-30 06:57:09 51°18.282 2°52.443 72.3 12.3 70 10.7
2004-07-30 06:57:14 51°18.288 2°52.469 72.5 12.4 71 10.6
2004-07-30 06:57:19 51°18.293 2°52.494 72.7 12.4 70 10.7
2004-07-30 06:57:23 51°18.298 2°52.515 72.3 12.4 70 10.6
2004-07-30 06:57:29 51°18.305 2°52.546 72.1 12.4 69 10.7
2004-07-30 06:57:34 51°18.311 2°52.571 71.6 12.4 70 10.7
2004-07-30 06:57:39 51°18.317 2°52.597 71.5 12.3 69 10.8
2004-07-30 06:57:44 51°18.323 2°52.623 71.5 12.4 70 10.7
2004-07-30 06:57:49 51°18.329 2°52.648 71.6 12.5 70 10.7
2004-07-30 06:57:54 51°18.335 2°52.674 71.6 12.4 70 10.8
2004-07-30 06:57:59 51°18.341 2°52.7 72 12.4 71 10.8
2004-07-30 06:58:03 51°18.345 2°52.721 72.5 12.4 71 10.7
2004-07-30 06:58:09 51°18.352 2°52.752 73.2 12.5 72 10.9
2004-07-30 06:58:14 51°18.358 2°52.778 72.6 12.5 70 10.7
2004-07-30 06:58:19 51°18.364 2°52.804 72 12.4 70 10.7
2004-07-30 06:58:23 51°18.369 2°52.825 71.7 12.4 70 10.8
2004-07-30 06:58:29 51°18.376 2°52.856 71.7 12.4 70 10.8
2004-07-30 06:58:34 51°18.382 2°52.882 71.8 12.4 70 10.7
2004-07-30 06:58:39 51°18.387 2°52.908 72.2 12.4 71 10.8
2004-07-30 06:58:43 51°18.392 2°52.929 72.5 12.4 71 10.9
2004-07-30 06:58:49 51°18.399 2°52.959 72.5 12.3 71 10.8
2004-07-30 06:58:54 51°18.405 2°52.985 72.5 12.4 71 10.8
2004-07-30 06:58:59 51°18.41 2°53.011 72.7 12.4 70 10.9
2004-07-30 06:59:03 51°18.415 2°53.032 72.5 12.5 70 10.8
2004-07-30 06:59:09 51°18.422 2°53.063 72.3 12.4 70 10.8
2004-07-30 06:59:14 51°18.428 2°53.089 72.2 12.4 71 10.7
2004-07-30 06:59:19 51°18.434 2°53.115 72.4 12.4 70 10.9
2004-07-30 06:59:23 51°18.438 2°53.135 72.4 12.4 70 10.8
2004-07-30 06:59:29 51°18.445 2°53.167 72.6 12.5 70 10.9
2004-07-30 06:59:34 51°18.451 2°53.193 72.4 12.5 70 10.8
2004-07-30 06:59:39 51°18.457 2°53.218 71.9 12.5 70 10.8
2004-07-30 06:59:43 51°18.462 2°53.239 72 12.4 70 10.8
2004-07-30 06:59:49 51°18.469 2°53.27 72.5 12.4 71 10.8
2004-07-30 06:59:54 51°18.474 2°53.296 72.7 12.5 70 10.8
2004-07-30 06:59:59 51°18.48 2°53.322 72.5 12.4 70 10.8
2004-07-30 07:00:04 51°18.486 2°53.347 72.2 12.3 70 10.8
2004-07-30 07:00:10 51°18.493 2°53.379 72.5 12.4 71 10.8
2004-07-30 07:00:14 51°18.497 2°53.399 73.2 12.4 71 10.8
2004-07-30 07:00:19 51°18.503 2°53.425 72.9 12.4 70 10.8
2004-07-30 07:00:24 51°18.509 2°53.451 72.6 12.4 71 10.9
2004-07-30 07:00:29 51°18.515 2°53.477 73 12.4 72 10.8
2004-07-30 07:00:34 51°18.52 2°53.503 73.3 12.4 71 10.9
2004-07-30 07:00:39 51°18.526 2°53.529 73.3 12.4 70 10.8
2004-07-30 07:00:44 51°18.532 2°53.555 72.9 12.4 70 10.8
2004-07-30 07:00:49 51°18.538 2°53.58 72.5 12.4 70 10.8
2004-07-30 07:00:54 51°18.543 2°53.606 72.5 12.4 70 11
2004-07-30 07:00:59 51°18.549 2°53.632 72.7 12.4 71 10.8
2004-07-30 07:01:04 51°18.555 2°53.658 72.9 12.4 71 10.8
2004-07-30 07:01:10 51°18.562 2°53.689 72.8 12.3 70 10.8
2004-07-30 07:01:14 51°18.567 2°53.709 72.6 12.3 70 10.9
2004-07-30 07:01:19 51°18.573 2°53.735 72.6 12.4 70 10.8
2004-07-30 07:01:23 51°18.578 2°53.755 72 12.4 69 10.8
2004-07-30 07:01:29 51°18.585 2°53.786 71.2 12.3 69 10.8
2004-07-30 07:01:34 51°18.591 2°53.811 71.4 12.4 69 10.8
2004-07-30 07:01:39 51°18.598 2°53.837 71.6 12.4 68 10.8
2004-07-30 07:01:44 51°18.604 2°53.862 71.1 12.4 68 10.8
2004-07-30 07:01:50 51°18.612 2°53.893 70.8 12.3 68 10.8
2004-07-30 07:01:54 51°18.617 2°53.913 70.6 12.4 67 10.8
2004-07-30 07:01:59 51°18.624 2°53.938 70.2 12.4 67 10.8
2004-07-30 07:02:04 51°18.63 2°53.963 69.9 12.4 67 10.8
2004-07-30 07:02:09 51°18.637 2°53.989 70.1 12.4 69 10.8
2004-07-30 07:02:14 51°18.643 2°54.014 70.8 12.4 68 10.8
2004-07-30 07:02:19 51°18.65 2°54.039 71 12.4 68 10.8
2004-07-30 07:02:24 51°18.656 2°54.065 71.2 12.3 69 10.8
2004-07-30 07:02:30 51°18.663 2°54.095 71.6 12.3 68 10.8
2004-07-30 07:02:34 51°18.668 2°54.116 71.4 12.4 68 10.8
2004-07-30 07:02:39 51°18.675 2°54.141 71.1 12.4 68 10.8
2004-07-30 07:02:43 51°18.68 2°54.161 70.5 12.4 67 10.8
2004-07-30 07:02:49 51°18.688 2°54.191 70.2 12.3 67 10.8
2004-07-30 07:02:54 51°18.695 2°54.216 70.1 12.4 67 10.8
2004-07-30 07:02:59 51°18.702 2°54.242 70 12.4 67 10.8
2004-07-30 07:03:03 51°18.707 2°54.262 70 12.3 67 10.8
2004-07-30 07:03:09 51°18.715 2°54.292 70.3 12.3 68 10.8
2004-07-30 07:03:14 51°18.721 2°54.317 70.6 12.3 68 10.8
2004-07-30 07:03:19 51°18.727 2°54.342 71 12.4 68 10.9
2004-07-30 07:03:24 51°18.734 2°54.368 71.1 12.4 68 10.8
2004-07-30 07:03:30 51°18.741 2°54.398 71.2 12.3 68 10.8
2004-07-30 07:03:34 51°18.746 2°54.418 71.4 12.3 69 10.9
2004-07-30 07:03:39 51°18.753 2°54.444 71.5 12.3 68 10.8
2004-07-30 07:03:43 51°18.758 2°54.464 71.3 12.3 68 10.8
2004-07-30 07:03:49 51°18.765 2°54.494 70.9 12.3 67 10.9
2004-07-30 07:03:54 51°18.772 2°54.519 70.5 12.2 67 10.8
2004-07-30 07:03:59 51°18.778 2°54.544 70.5 12.3 68 10.8
2004-07-30 07:04:03 51°18.784 2°54.564 70.8 12.3 68 10.8
2004-07-30 07:04:09 51°18.791 2°54.595 71.4 12.4 69 10.8
2004-07-30 07:04:14 51°18.797 2°54.62 71.8 12.3 69 10.8
2004-07-30 07:04:19 51°18.803 2°54.646 72.3 12.3 70 10.8
2004-07-30 07:04:23 51°18.807 2°54.666 72.8 12.3 70 10.8
2004-07-30 07:04:29 51°18.815 2°54.697 72.8 12.3 69 10.8
2004-07-30 07:04:34 51°18.821 2°54.722 72.2 12.3 69 10.8
2004-07-30 07:04:39 51°18.827 2°54.748 71.7 12.3 68 10.8
2004-07-30 07:04:43 51°18.832 2°54.768 71.4 12.2 68 10.8
2004-07-30 07:04:50 51°18.841 2°54.803 71.1 12.3 68 10.8
2004-07-30 07:04:54 51°18.847 2°54.823 70.5 12.3 67 10.7
2004-07-30 07:04:59 51°18.853 2°54.848 70.1 12.3 67 10.8
2004-07-30 07:05:04 51°18.86 2°54.873 69.6 12.3 66 10.8
2004-07-30 07:05:10 51°18.868 2°54.902 69.7 12.2 67 10.8
2004-07-30 07:05:14 51°18.873 2°54.922 70.1 12.3 67 10.8
2004-07-30 07:05:19 51°18.88 2°54.948 70.4 12.3 68 10.8
2004-07-30 07:05:23 51°18.885 2°54.968 71 12.2 68 10.8
2004-07-30 07:05:29 51°18.892 2°54.998 71.2 12.2 69 10.8
2004-07-30 07:05:34 51°18.898 2°55.023 71.6 12.3 69 10.8
2004-07-30 07:05:39 51°18.905 2°55.049 71.8 12.3 69 10.8
2004-07-30 07:05:43 51°18.909 2°55.069 71.8 12.3 69 10.8
2004-07-30 07:05:49 51°18.917 2°55.099 71.8 12.2 69 10.8
2004-07-30 07:05:54 51°18.923 2°55.125 71.8 12.2 68 10.8
2004-07-30 07:05:59 51°18.929 2°55.15 71.7 12.3 68 10.7
2004-07-30 07:06:04 51°18.936 2°55.175 71.1 12.3 68 10.8
2004-07-30 07:06:09 51°18.943 2°55.2 70.4 12.3 67 10.7
2004-07-30 07:06:14 51°18.949 2°55.225 70.1 12.2 67 10.8
2004-07-30 07:06:19 51°18.956 2°55.25 70 12.2 67 10.7
2004-07-30 07:06:23 51°18.961 2°55.27 70.1 12.3 67 10.7
2004-07-30 07:06:29 51°18.969 2°55.3 70.3 12.3 68 10.6
2004-07-30 07:06:34 51°18.975 2°55.325 70.4 12.2 68 10.8
2004-07-30 07:06:39 51°18.981 2°55.35 71.1 12.2 69 10.6
2004-07-30 07:06:44 51°18.988 2°55.376 71.4 12.3 68 10.6
2004-07-30 07:06:50 51°18.996 2°55.406 71 12.3 68 10.6
2004-07-30 07:06:54 51°19.001 2°55.426 70.7 12.3 68 10.6
2004-07-30 07:06:59 51°19.008 2°55.451 70.6 12.3 68 10.6
2004-07-30 07:07:04 51°19.014 2°55.476 70.5 12.3 67 10.6
2004-07-30 07:07:09 51°19.021 2°55.502 70.8 12.3 68 10.8
2004-07-30 07:07:14 51°19.027 2°55.527 71.1 12.3 68 10.6
2004-07-30 07:07:19 51°19.033 2°55.553 71.6 12.3 69 10.5
2004-07-30 07:07:24 51°19.039 2°55.578 71.8 12.3 69 10.6
2004-07-30 07:07:29 51°19.046 2°55.604 71.8 12.3 69 10.5
2004-07-30 07:07:34 51°19.052 2°55.629 71.8 12.3 69 10.6
2004-07-30 07:07:39 51°19.058 2°55.655 71.8 12.3 69 10.6
2004-07-30 07:07:43 51°19.063 2°55.675 71.8 12.3 69 10.5
2004-07-30 07:07:49 51°19.071 2°55.706 71.8 12.3 69 10.5
2004-07-30 07:07:54 51°19.077 2°55.731 71.7 12.4 68 10.5
2004-07-30 07:07:59 51°19.084 2°55.757 71.2 12.4 68 10.5
2004-07-30 07:08:03 51°19.089 2°55.777 71.1 12.4 68 10.5
2004-07-30 07:08:09 51°19.097 2°55.808 71.2 12.4 68 10.5
2004-07-30 07:08:14 51°19.103 2°55.833 71.2 12.4 68 10.5
2004-07-30 07:08:19 51°19.11 2°55.859 71.3 12.4 68 10.5
2004-07-30 07:08:24 51°19.116 2°55.884 71.2 12.4 68 10.6
2004-07-30 07:08:29 51°19.122 2°55.91 71.1 12.4 68 10.6
2004-07-30 07:08:34 51°19.129 2°55.935 70.8 12.4 67 10.6
2004-07-30 07:08:39 51°19.135 2°55.96 70.5 12.4 68 10.7
2004-07-30 07:08:44 51°19.142 2°55.985 70.4 12.4 67 10.6
2004-07-30 07:08:49 51°19.148 2°56.01 70.2 12.5 67 10.6
2004-07-30 07:08:54 51°19.155 2°56.036 70.2 12.5 67 10.6
2004-07-30 07:08:59 51°19.161 2°56.061 70.4 12.4 68 10.6
2004-07-30 07:09:04 51°19.168 2°56.087 71.4 12.4 69 10.6
2004-07-30 07:09:09 51°19.174 2°56.113 71.9 12.4 69 10.6
2004-07-30 07:09:14 51°19.18 2°56.139 72.3 12.4 70 10.5
2004-07-30 07:09:19 51°19.186 2°56.165 72.3 12.4 69 10.5
2004-07-30 07:09:23 51°19.191 2°56.185 72.2 12.3 69 10.5
2004-07-30 07:09:28 51°19.197 2°56.211 72.1 12.3 69 10.6
2004-07-30 07:09:34 51°19.204 2°56.241 71.7 12.4 68 10.6
2004-07-30 07:09:39 51°19.211 2°56.267 71.1 12.4 68 10.5
2004-07-30 07:09:44 51°19.218 2°56.292 70.4 12.4 67 10.5
2004-07-30 07:09:49 51°19.224 2°56.317 70.4 12.3 68 10.5
2004-07-30 07:09:54 51°19.23 2°56.342 70.4 12.3 67 10.5
2004-07-30 07:09:59 51°19.237 2°56.368 70.5 12.4 68 10.5
2004-07-30 07:10:05 51°19.244 2°56.399 70.7 12.4 68 10.5
2004-07-30 07:10:09 51°19.249 2°56.419 71.1 12.4 69 10.4
2004-07-30 07:10:14 51°19.255 2°56.445 71.7 12.4 70 10.5
2004-07-30 07:10:19 51°19.261 2°56.47 72.1 12.4 69 10.4
2004-07-30 07:10:24 51°19.267 2°56.496 72 12.3 70 10.4
2004-07-30 07:10:29 51°19.273 2°56.521 72 12.4 69 10.4
2004-07-30 07:10:34 51°19.279 2°56.547 71.9 12.4 69 10.4
2004-07-30 07:10:39 51°19.285 2°56.572 71.8 12.3 69 10.3
2004-07-30 07:10:43 51°19.29 2°56.593 71.8 12.3 69 10.4
2004-07-30 07:10:49 51°19.297 2°56.623 71.8 12.4 70 10.4
2004-07-30 07:10:54 51°19.303 2°56.649 71.8 12.4 69 10.3
2004-07-30 07:10:59 51°19.309 2°56.674 71.7 12.3 69 10.3
2004-07-30 07:11:03 51°19.314 2°56.694 71.7 12 69 10.3
2004-07-30 07:11:09 51°19.321 2°56.722 71.2 10.9 69 10.4
2004-07-30 07:11:15 51°19.326 2°56.748 71 10.2 70 10.3
2004-07-30 07:11:19 51°19.329 2°56.763 71.3 9.6 71 10.3
2004-07-30 07:11:24 51°19.332 2°56.781 73.3 8.9 74 10.4
2004-07-30 07:11:30 51°19.333 2°56.802 79 7.7 87 10.4
2004-07-30 07:11:34 51°19.332 2°56.815 85 7.3 95 10.5
2004-07-30 07:11:39 51°19.329 2°56.829 92.8 6.7 105 10.5
2004-07-30 07:11:43 51°19.327 2°56.84 101.8 6.5 113 10.5
2004-07-30 07:11:49 51°19.321 2°56.854 109.4 6.3 117 10.4
2004-07-30 07:11:54 51°19.316 2°56.864 116.1 6 130 10.5
2004-07-30 07:11:59 51°19.31 2°56.873 122.2 5.8 135 10.5
2004-07-30 07:12:03 51°19.305 2°56.879 130.3 5.7 145 10.4
2004-07-30 07:12:09 51°19.297 2°56.886 137.1 5.7 148 10.4
2004-07-30 07:12:14 51°19.29 2°56.89 144 5.5 158 10.4
2004-07-30 07:12:19 51°19.282 2°56.894 150.6 5.5 163 10.4
2004-07-30 07:12:23 51°19.276 2°56.895 157.4 5.4 170 10.4
2004-07-30 07:12:29 51°19.267 2°56.897 163.7 5.4 172 10.3
2004-07-30 07:12:34 51°19.26 2°56.896 170.3 5.4 181 10.3
2004-07-30 07:12:39 51°19.252 2°56.895 175.5 5.4 185 10.3
2004-07-30 07:12:45 51°19.244 2°56.892 181.6 5.4 190 10.3
2004-07-30 07:12:49 51°19.238 2°56.889 187.9 5.3 195 10.3
2004-07-30 07:12:54 51°19.231 2°56.885 194.2 5.3 200 10.1
2004-07-30 07:12:59 51°19.225 2°56.881 201.3 5.3 204 10.2
2004-07-30 07:13:04 51°19.218 2°56.875 206.2 5.2 207 10.2
2004-07-30 07:13:09 51°19.212 2°56.869 212.8 5.2 214 10.2
2004-07-30 07:13:14 51°19.206 2°56.862 217.5 5.2 217 10.3
2004-07-30 07:13:19 51°19.201 2°56.855 223.2 5.2 220 10.3
2004-07-30 07:13:23 51°19.197 2°56.848 229.7 5.1 224 10.3
2004-07-30 07:13:30 51°19.191 2°56.837 234.1 5.1 229 10.4
2004-07-30 07:13:34 51°19.187 2°56.83 240.6 5 232 10.3
2004-07-30 07:13:39 51°19.183 2°56.821 244.7 4.9 235 10.4
2004-07-30 07:13:43 51°19.181 2°56.813 251.2 4.9 240 10.4
2004-07-30 07:13:48 51°19.178 2°56.803 256.7 5.1 246 10.4
2004-07-30 07:13:54 51°19.175 2°56.79 262.7 5.1 250 10.3
2004-07-30 07:13:59 51°19.173 2°56.779 269.7 5.2 255 10.3
2004-07-30 07:14:05 51°19.172 2°56.766 275.3 5.1 260 10.3
2004-07-30 07:14:09 51°19.172 2°56.757 283.8 5.1 265 10.4
2004-07-30 07:14:15 51°19.173 2°56.744 289.6 4.8 272 10.3
2004-07-30 07:14:19 51°19.173 2°56.736 297.9 4.5 277 10.3
2004-07-30 07:14:25 51°19.174 2°56.725 301 4.4 277 10.3
2004-07-30 07:14:29 51°19.175 2°56.717 303.4 4.3 280 10.4
2004-07-30 07:14:34 51°19.176 2°56.708 305.2 4.4 281 10.4
2004-07-30 07:14:39 51°19.178 2°56.698 306.2 4.5 284 10.4
2004-07-30 07:14:45 51°19.179 2°56.687 307 4.5 283 10.4
2004-07-30 07:14:49 51°19.18 2°56.68 307.1 4.2 283 10.4
2004-07-30 07:14:54 51°19.181 2°56.671 305.9 4.1 279 10.5
2004-07-30 07:14:59 51°19.182 2°56.662 303.3 4.1 277 10.5
2004-07-30 07:15:04 51°19.182 2°56.652 299.2 4.2 273 10.5
2004-07-30 07:15:09 51°19.182 2°56.643 294.1 4.3 267 10.5
2004-07-30 07:15:14 51°19.181 2°56.633 287.6 4.3 262 10.5
2004-07-30 07:15:19 51°19.18 2°56.624 281.3 4.1 259 10.5
2004-07-30 07:15:23 51°19.179 2°56.618 276.8 3.8 253 10.5
2004-07-30 07:15:30 51°19.176 2°56.609 273.8 3 248 10.5
2004-07-30 07:15:34 51°19.175 2°56.604 269.2 2.7 241 10.5
2004-07-30 07:15:39 51°19.173 2°56.6 265.6 2.4 237 10.5
2004-07-30 07:15:43 51°19.172 2°56.597 260.8 2.2 232 10.6
2004-07-30 07:15:49 51°19.17 2°56.593 258.3 2 227 10.5
2004-07-30 07:15:54 51°19.168 2°56.591 255.1 1.7 221 10.6
2004-07-30 07:15:59 51°19.166 2°56.589 253.3 1.6 212 10.5
2004-07-30 07:16:04 51°19.164 2°56.588 250.9 1.4 208 10.5
2004-07-30 07:16:09 51°19.163 2°56.586 248.2 1.4 207 10.5
2004-07-30 07:16:14 51°19.161 2°56.585 245.4 1.5 206 10.6
2004-07-30 07:16:19 51°19.159 2°56.583 242.6 1.5 204 10.5
2004-07-30 07:16:25 51°19.157 2°56.582 239.8 1.5 203 10.5
2004-07-30 07:16:30 51°19.155 2°56.58 236.9 1.5 200 10.5
2004-07-30 07:16:34 51°19.153 2°56.58 234.2 1.5 199 10.5
2004-07-30 07:16:39 51°19.152 2°56.578 231.4 1.4 207 10.5
2004-07-30 07:16:43 51°19.15 2°56.577 228.8 1.5 199 10.5
2004-07-30 07:16:49 51°19.148 2°56.576 226.4 1.5 207 10.5
2004-07-30 07:16:54 51°19.146 2°56.574 223.7 1.5 200 10.5
2004-07-30 07:16:59 51°19.144 2°56.573 222 1.5 205 10.4
2004-07-30 07:17:03 51°19.142 2°56.572 220 1.5 201 10.5
2004-07-30 07:17:09 51°19.14 2°56.571 218.4 1.5 204 10.5
2004-07-30 07:17:14 51°19.138 2°56.57 216.7 1.6 201 10.5
2004-07-30 07:17:19 51°19.136 2°56.568 215.4 1.6 204 10.5
2004-07-30 07:17:23 51°19.134 2°56.567 213.7 1.6 201 10.5
2004-07-30 07:17:29 51°19.132 2°56.566 212.5 1.6 201 10.4
2004-07-30 07:17:34 51°19.13 2°56.564 211.8 1.6 200 10.5
2004-07-30 07:17:39 51°19.128 2°56.563 210.6 1.6 203 10.5
2004-07-30 07:17:44 51°19.125 2°56.562 209.6 1.6 199 10.4
2004-07-30 07:17:49 51°19.123 2°56.561 208.6 1.6 203 10.4
2004-07-30 07:17:54 51°19.121 2°56.56 207.7 1.6 199 10.4
2004-07-30 07:17:59 51°19.119 2°56.558 207.1 1.6 202 10.5
2004-07-30 07:18:05 51°19.117 2°56.557 206.5 1.6 201 10.5
2004-07-30 07:18:07 51°19.116 2°56.556 206.1 1.7 201 10.5
2004-07-30 07:18:14 51°19.113 2°56.555 205.8 1.6 201 10.5
2004-07-30 07:18:19 51°19.111 2°56.553 205.6 1.6 203 10.4
2004-07-30 07:18:24 51°19.108 2°56.552 205.4 1.6 201 10.4
2004-07-30 07:18:29 51°19.106 2°56.551 205.3 1.7 202 10.5
2004-07-30 07:18:34 51°19.104 2°56.549 205.3 1.7 202 10.4
2004-07-30 07:18:39 51°19.102 2°56.548 205.4 1.7 202 10.4
2004-07-30 07:18:43 51°19.101 2°56.547 205.6 1.7 202 10.4
2004-07-30 07:18:49 51°19.098 2°56.545 205.7 1.7 201 10.4
2004-07-30 07:18:54 51°19.096 2°56.544 206.1 1.7 204 10.5
2004-07-30 07:18:59 51°19.093 2°56.542 206.7 1.8 204 10.4
2004-07-30 07:19:03 51°19.091 2°56.54 207.5 2 204 10.5
2004-07-30 07:19:10 51°19.087 2°56.537 209.4 2.5 207 10.4
2004-07-30 07:19:14 51°19.085 2°56.535 212.3 2.7 209 10.4
2004-07-30 07:19:19 51°19.081 2°56.531 216.1 2.9 210 10.4
2004-07-30 07:19:23 51°19.078 2°56.528 220.1 3.1 214 10.5
2004-07-30 07:19:29 51°19.074 2°56.523 224.3 3.2 217 10.5
2004-07-30 07:19:34 51°19.07 2°56.518 228.4 3.4 220 10.5
2004-07-30 07:19:39 51°19.067 2°56.513 232.7 3.5 222 10.4
2004-07-30 07:19:43 51°19.064 2°56.508 236.9 3.6 226 10.4
2004-07-30 07:19:49 51°19.06 2°56.501 241.2 3.7 231 10.4
2004-07-30 07:19:54 51°19.057 2°56.494 246.6 3.7 233 10.4
2004-07-30 07:19:59 51°19.054 2°56.487 250.3 3.8 236 10.4
2004-07-30 07:20:03 51°19.052 2°56.481 255 3.8 239 10.4
2004-07-30 07:20:10 51°19.049 2°56.471 259.6 3.8 244 10.4
2004-07-30 07:20:14 51°19.047 2°56.465 264.1 3.8 245 10.4
2004-07-30 07:20:19 51°19.045 2°56.457 268.4 3.8 250 10.4
2004-07-30 07:20:23 51°19.044 2°56.45 272.9 3.8 254 10.4
2004-07-30 07:20:29 51°19.042 2°56.441 277.4 3.8 256 10.4
2004-07-30 07:20:34 51°19.042 2°56.433 282.7 3.7 261 10.4
2004-07-30 07:20:39 51°19.041 2°56.424 286.4 3.7 263 10.4
2004-07-30 07:20:44 51°19.041 2°56.417 291 3.6 266 10.5
2004-07-30 07:20:49 51°19.041 2°56.409 295.6 3.5 273 10.5
2004-07-30 07:20:54 51°19.042 2°56.401 300.4 3.4 277 10.5
2004-07-30 07:20:59 51°19.043 2°56.394 305.5 3.4 280 10.5
2004-07-30 07:21:05 51°19.044 2°56.385 310.8 3.3 286 10.5
2004-07-30 07:21:09 51°19.046 2°56.38 316 3.2 290 10.5
2004-07-30 07:21:14 51°19.047 2°56.374 321.5 3.1 295 10.5
2004-07-30 07:21:19 51°19.05 2°56.368 326.6 3.1 298 10.6
2004-07-30 07:21:25 51°19.053 2°56.362 330.6 3.1 302 10.6
2004-07-30 07:21:29 51°19.055 2°56.357 333.8 3.1 307 10.6
2004-07-30 07:21:34 51°19.058 2°56.352 335.6 3.1 311 10.6
2004-07-30 07:21:39 51°19.061 2°56.347 337.1 3.2 312 10.6
2004-07-30 07:21:43 51°19.063 2°56.343 339 3.2 315 10.6
2004-07-30 07:21:49 51°19.067 2°56.337 341.2 3.3 319 10.6
2004-07-30 07:21:54 51°19.071 2°56.333 343.6 3.3 322 10.6
2004-07-30 07:21:59 51°19.074 2°56.328 346 3.3 324 10.6
2004-07-30 07:22:03 51°19.077 2°56.325 347.8 3.2 326 10.7
2004-07-30 07:22:09 51°19.082 2°56.321 349.3 3 327 10.7
2004-07-30 07:22:14 51°19.085 2°56.318 351.1 2.9 329 10.7
2004-07-30 07:22:19 51°19.089 2°56.315 352 2.8 329 10.7
2004-07-30 07:22:24 51°19.092 2°56.312 352.8 2.6 330 10.7
2004-07-30 07:22:29 51°19.095 2°56.309 352.6 2.5 327 10.7
2004-07-30 07:22:34 51°19.097 2°56.306 351.1 2.4 326 10.7
2004-07-30 07:22:39 51°19.1 2°56.302 349.1 2.4 322 10.7
2004-07-30 07:22:43 51°19.102 2°56.3 346.9 2.2 320 10.6
2004-07-30 07:22:49 51°19.104 2°56.296 344.6 2.2 318 10.7
2004-07-30 07:22:54 51°19.106 2°56.292 342.1 2.2 312 10.6
2004-07-30 07:22:59 51°19.108 2°56.288 339.6 2.2 308 10.7
2004-07-30 07:23:03 51°19.109 2°56.285 336.8 2.1 304 10.7
2004-07-30 07:23:09 51°19.111 2°56.28 334 2.1 299 10.7
2004-07-30 07:23:14 51°19.113 2°56.276 331.4 2.1 297 10.7
2004-07-30 07:23:19 51°19.114 2°56.272 328.6 2.1 295 10.7
2004-07-30 07:23:23 51°19.115 2°56.268 325.4 2.1 289 10.7
2004-07-30 07:23:29 51°19.116 2°56.263 322.4 2.2 286 10.7
2004-07-30 07:23:34 51°19.116 2°56.258 320 2.1 281 10.7
2004-07-30 07:23:39 51°19.117 2°56.254 317.7 2 281 10.8
2004-07-30 07:23:43 51°19.117 2°56.25 315.7 2 277 10.8
2004-07-30 07:23:49 51°19.117 2°56.245 314 1.9 274 10.8
2004-07-30 07:23:54 51°19.117 2°56.241 312.2 1.9 273 10.8
2004-07-30 07:23:59 51°19.117 2°56.236 310.7 1.9 269 10.8
2004-07-30 07:24:03 51°19.117 2°56.233 309.4 1.9 269 10.8
2004-07-30 07:24:09 51°19.116 2°56.228 307.7 1.8 261 10.8
2004-07-30 07:24:14 51°19.116 2°56.225 306.2 1.5 254 10.8
2004-07-30 07:24:19 51°19.115 2°56.223 304.8 1.4 246 10.8
2004-07-30 07:24:23 51°19.114 2°56.22 303.2 1.3 241 10.8
2004-07-30 07:24:29 51°19.113 2°56.218 301.8 1.3 228 10.9
2004-07-30 07:24:34 51°19.112 2°56.217 300.8 1.1 218 10.8
2004-07-30 07:24:39 51°19.11 2°56.215 300.3 1.2 210 10.8
2004-07-30 07:24:43 51°19.109 2°56.215 299.2 1.2 203 10.8
2004-07-30 07:24:49 51°19.107 2°56.214 298.2 1.2 195 10.8
2004-07-30 07:24:54 51°19.105 2°56.214 297.4 1.3 183 10.8
2004-07-30 07:24:59 51°19.104 2°56.214 296.7 1.4 178 10.8
2004-07-30 07:25:04 51°19.102 2°56.214 295.7 1.4 175 10.8
2004-07-30 07:25:09 51°19.1 2°56.215 294.4 1.5 167 4.9
2004-07-30 07:25:15 51°19.097 2°56.216 292.9 1.5 163 -999
2004-07-30 07:25:19 51°19.095 2°56.217 291.7 1.6 161 -999
2004-07-30 07:25:25 51°19.093 2°56.219 290.3 1.6 155 -999
2004-07-30 07:25:30 51°19.091 2°56.22 289 1.6 157 -999
2004-07-30 07:25:35 51°19.089 2°56.221 288 1.5 163 -999
2004-07-30 07:25:39 51°19.088 2°56.222 286.9 1.2 170 -999
2004-07-30 07:25:45 51°19.086 2°56.222 285.2 1.3 182 -999
2004-07-30 07:25:50 51°19.084 2°56.221 283.1 1.2 197 -999
2004-07-30 07:25:55 51°19.082 2°56.219 281.2 1.3 205 -999
2004-07-30 07:26:00 51°19.081 2°56.217 279.4 1.4 216 -999
2004-07-30 07:26:04 51°19.08 2°56.216 278.4 1.4 216 10.9
2004-07-30 07:26:10 51°19.078 2°56.214 277 1.4 215 10.8
2004-07-30 07:26:14 51°19.076 2°56.213 276 1.4 216 10.8
2004-07-30 07:26:18 51°19.075 2°56.211 274.8 1.4 215 10.8
2004-07-30 07:26:23 51°19.074 2°56.209 273.6 1.4 215 10.8
2004-07-30 07:26:29 51°19.072 2°56.207 272.2 1.4 214 10.8
2004-07-30 07:26:34 51°19.07 2°56.205 271.3 1.4 215 10.7
2004-07-30 07:26:39 51°19.068 2°56.203 269.9 1.5 214 10.7
2004-07-30 07:26:44 51°19.067 2°56.202 268.8 1.4 215 10.7
2004-07-30 07:26:49 51°19.065 2°56.2 267.7 1.5 213 10.7
2004-07-30 07:26:54 51°19.063 2°56.198 266.6 1.4 215 10.7
2004-07-30 07:26:59 51°19.062 2°56.196 265.5 1.5 212 10.7
2004-07-30 07:27:05 51°19.059 2°56.194 264.7 1.5 213 10.7
2004-07-30 07:27:09 51°19.058 2°56.193 263.4 1.5 213 10.7
2004-07-30 07:27:14 51°19.057 2°56.191 262.2 1.4 215 10.7
2004-07-30 07:27:19 51°19.055 2°56.189 261.2 1.5 212 10.8
2004-07-30 07:27:23 51°19.053 2°56.188 259.9 1.5 213 10.8
2004-07-30 07:27:29 51°19.051 2°56.186 259.1 1.6 211 10.8
2004-07-30 07:27:34 51°19.05 2°56.184 257.5 1.5 214 10.7
2004-07-30 07:27:39 51°19.048 2°56.182 256.1 1.5 210 10.8
2004-07-30 07:27:45 51°19.046 2°56.18 255 1.5 212 10.8
2004-07-30 07:27:47 51°19.045 2°56.179 253.3 1.5 211 10.8
2004-07-30 07:27:54 51°19.042 2°56.177 252.2 1.5 213 10.8
2004-07-30 07:27:59 51°19.041 2°56.175 251 1.5 211 10.8
2004-07-30 07:28:05 51°19.038 2°56.172 250.1 1.5 212 10.8
2004-07-30 07:28:10 51°19.037 2°56.171 248.9 1.6 211 10.8
2004-07-30 07:28:14 51°19.035 2°56.169 247.5 1.5 212 10.8
2004-07-30 07:28:19 51°19.033 2°56.168 246.5 1.6 210 10.8
2004-07-30 07:28:24 51°19.031 2°56.166 245.5 1.6 211 10.8
2004-07-30 07:28:29 51°19.029 2°56.164 244.4 1.6 212 10.8
2004-07-30 07:28:34 51°19.028 2°56.162 243.4 1.6 210 10.8
2004-07-30 07:28:39 51°19.026 2°56.16 242.6 1.6 212 10.8
2004-07-30 07:28:43 51°19.024 2°56.159 241.5 1.6 212 10.8
2004-07-30 07:28:49 51°19.022 2°56.157 240.7 1.6 212 10.8
2004-07-30 07:28:54 51°19.02 2°56.155 240 1.6 210 10.8
2004-07-30 07:28:59 51°19.018 2°56.153 239.3 1.6 213 10.8
2004-07-30 07:29:05 51°19.016 2°56.15 238.7 1.6 211 10.7
2004-07-30 07:29:09 51°19.014 2°56.149 237.9 1.6 212 10.7
2004-07-30 07:29:14 51°19.013 2°56.147 237.3 1.6 213 10.7
2004-07-30 07:29:19 51°19.011 2°56.145 236.6 1.6 211 10.7
2004-07-30 07:29:25 51°19.008 2°56.143 236.1 1.6 212 10.7
2004-07-30 07:29:30 51°19.006 2°56.141 235.6 1.6 213 10.7
2004-07-30 07:29:34 51°19.005 2°56.139 234.9 1.6 215 10.7
2004-07-30 07:29:39 51°19.003 2°56.137 234.5 1.6 214 10.7
2004-07-30 07:29:43 51°19.002 2°56.136 234.1 1.7 213 10.6
2004-07-30 07:29:49 51°18.999 2°56.133 233.7 1.7 214 10.6
2004-07-30 07:29:54 51°18.997 2°56.131 233.4 1.7 213 10.7
2004-07-30 07:29:59 51°18.995 2°56.129 233.1 1.7 211 10.7
2004-07-30 07:30:05 51°18.993 2°56.127 232.8 1.7 213 10.8
2004-07-30 07:30:09 51°18.991 2°56.125 232.3 1.7 213 10.7
2004-07-30 07:30:14 51°18.989 2°56.123 232.2 1.7 211 10.8
2004-07-30 07:30:19 51°18.987 2°56.121 231.8 1.7 213 10.8
2004-07-30 07:30:23 51°18.986 2°56.12 231.5 1.7 211 10.9
2004-07-30 07:30:29 51°18.983 2°56.117 231.3 1.7 213 10.8
2004-07-30 07:30:34 51°18.981 2°56.115 231.1 1.7 213 10.8
2004-07-30 07:30:39 51°18.979 2°56.113 230.9 1.7 212 10.8
2004-07-30 07:30:45 51°18.977 2°56.111 230.8 1.7 212 10.8
2004-07-30 07:30:49 51°18.975 2°56.109 230.8 1.7 213 10.8
2004-07-30 07:30:54 51°18.973 2°56.107 230.8 1.8 214 10.8
2004-07-30 07:30:59 51°18.971 2°56.105 230.8 1.7 213 10.8
2004-07-30 07:31:04 51°18.969 2°56.102 231 1.8 213 10.8
2004-07-30 07:31:09 51°18.967 2°56.1 231.4 1.8 213 10.8
2004-07-30 07:31:14 51°18.965 2°56.098 231.6 1.8 214 10.8
2004-07-30 07:31:19 51°18.963 2°56.096 231.9 1.7 214 10.8
2004-07-30 07:31:23 51°18.961 2°56.094 232.3 1.7 214 10.8
2004-07-30 07:31:29 51°18.959 2°56.091 232.6 1.7 215 10.8
2004-07-30 07:31:34 51°18.957 2°56.089 233 1.8 214 10.9
2004-07-30 07:31:39 51°18.955 2°56.087 233.3 1.8 216 10.8
2004-07-30 07:31:42 51°18.954 2°56.085 234 1.8 214 10.8
2004-07-30 07:31:49 51°18.951 2°56.082 234.3 1.7 215 10.8
2004-07-30 07:31:54 51°18.949 2°56.08 234.6 1.8 216 10.9
2004-07-30 07:31:59 51°18.947 2°56.078 235.2 1.8 216 11
2004-07-30 07:32:05 51°18.945 2°56.075 235.6 1.7 217 10.7
2004-07-30 07:32:10 51°18.943 2°56.073 236.2 1.8 216 10.7
2004-07-30 07:32:14 51°18.941 2°56.071 236.7 1.8 218 10.7
2004-07-30 07:32:19 51°18.939 2°56.068 237.1 1.8 218 10.7
2004-07-30 07:32:24 51°18.937 2°56.066 237.6 1.7 217 10.7
2004-07-30 07:32:29 51°18.935 2°56.064 238 1.7 217 10.7
2004-07-30 07:32:34 51°18.933 2°56.061 238.5 1.8 219 10.6
2004-07-30 07:32:38 51°18.932 2°56.059 238.7 1.7 218 10.6
2004-07-30 07:32:44 51°18.93 2°56.057 239.3 1.8 217 10.7
2004-07-30 07:32:49 51°18.928 2°56.054 239.7 1.7 220 10.6
2004-07-30 07:32:54 51°18.926 2°56.052 240.1 1.7 220 10.6
2004-07-30 07:32:59 51°18.924 2°56.049 240.5 1.7 218 10.7
2004-07-30 07:33:05 51°18.922 2°56.046 240.9 1.7 219 10.7
2004-07-30 07:33:09 51°18.921 2°56.045 241.2 1.7 218 10.7
2004-07-30 07:33:14 51°18.919 2°56.042 241.7 1.7 219 10.7
2004-07-30 07:33:19 51°18.917 2°56.04 241.7 1.7 217 10.7
2004-07-30 07:33:24 51°18.915 2°56.037 242 1.7 220 10.7
2004-07-30 07:33:30 51°18.913 2°56.034 242.2 1.8 219 10.7
2004-07-30 07:33:34 51°18.911 2°56.033 242.4 1.7 219 10.7
2004-07-30 07:33:39 51°18.909 2°56.03 242.7 1.8 217 10.6
2004-07-30 07:33:43 51°18.908 2°56.028 242.7 1.7 219 10.7
2004-07-30 07:33:49 51°18.906 2°56.025 242.9 1.8 220 10.7
2004-07-30 07:33:55 51°18.903 2°56.022 243 1.8 218 10.7
2004-07-30 07:33:59 51°18.902 2°56.02 243.1 1.7 221 10.7
2004-07-30 07:34:05 51°18.9 2°56.018 243.1 1.8 216 10.7
2004-07-30 07:34:09 51°18.898 2°56.016 243.3 1.8 219 10.7
2004-07-30 07:34:14 51°18.896 2°56.013 243.4 1.7 218 10.7
2004-07-30 07:34:19 51°18.894 2°56.011 243.3 1.7 219 10.7
2004-07-30 07:34:25 51°18.892 2°56.008 243.3 1.8 217 10.7
2004-07-30 07:34:30 51°18.89 2°56.005 243.4 1.8 218 10.7
2004-07-30 07:34:34 51°18.889 2°56.003 243.3 1.8 219 10.7
2004-07-30 07:34:39 51°18.887 2°56.001 243.3 1.8 219 10.7
2004-07-30 07:34:43 51°18.885 2°55.999 243.3 1.7 219 10.7
2004-07-30 07:34:49 51°18.883 2°55.996 243.3 1.8 217 10.7
2004-07-30 07:34:55 51°18.881 2°55.993 243.3 1.7 220 10.7
2004-07-30 07:34:59 51°18.879 2°55.991 243.3 1.8 218 10.7
2004-07-30 07:35:05 51°18.877 2°55.988 243.3 1.8 219 10.7
2004-07-30 07:35:09 51°18.875 2°55.986 243.4 1.8 217 10.7
2004-07-30 07:35:14 51°18.873 2°55.984 243.4 1.7 221 10.6
2004-07-30 07:35:19 51°18.871 2°55.981 243.7 1.8 217 10.6
2004-07-30 07:35:23 51°18.87 2°55.979 243.7 1.8 219 10.7
2004-07-30 07:35:30 51°18.867 2°55.976 243.8 1.8 219 10.7
2004-07-30 07:35:34 51°18.866 2°55.974 243.8 1.8 219 10.7
2004-07-30 07:35:39 51°18.864 2°55.971 244 1.8 220 10.7
2004-07-30 07:35:44 51°18.862 2°55.969 244.2 1.8 220 10.7
2004-07-30 07:35:49 51°18.86 2°55.967 244.4 1.8 220 10.7
2004-07-30 07:35:54 51°18.858 2°55.964 244.6 1.7 220 10.7
2004-07-30 07:35:59 51°18.856 2°55.962 244.9 1.8 219 10.7
2004-07-30 07:36:03 51°18.855 2°55.959 245.1 1.8 220 10.7
2004-07-30 07:36:09 51°18.852 2°55.956 245.2 1.8 219 10.7
2004-07-30 07:36:14 51°18.85 2°55.954 245.4 1.7 219 10.7
2004-07-30 07:36:19 51°18.849 2°55.952 245.3 1.7 219 10.7
2004-07-30 07:36:23 51°18.847 2°55.949 245.6 1.8 219 10.7
2004-07-30 07:36:29 51°18.845 2°55.946 245.7 1.8 220 10.7
2004-07-30 07:36:34 51°18.843 2°55.944 245.8 1.7 221 10.7
2004-07-30 07:36:39 51°18.841 2°55.941 246.1 1.7 220 10.7
2004-07-30 07:36:44 51°18.84 2°55.939 246.3 1.7 221 10.7
2004-07-30 07:36:49 51°18.838 2°55.936 246.5 1.7 221 10.7
2004-07-30 07:36:55 51°18.835 2°55.933 246.7 1.7 222 10.7
2004-07-30 07:36:59 51°18.834 2°55.931 246.7 1.7 220 10.7
2004-07-30 07:37:03 51°18.833 2°55.929 246.8 1.7 222 10.7
2004-07-30 07:37:09 51°18.83 2°55.926 247 1.7 222 10.7
2004-07-30 07:37:14 51°18.829 2°55.923 247.2 1.7 222 10.7
2004-07-30 07:37:19 51°18.827 2°55.921 247.5 1.8 221 10.7
2004-07-30 07:37:23 51°18.825 2°55.919 247.6 1.7 224 10.7
2004-07-30 07:37:29 51°18.823 2°55.916 247.9 1.7 224 10.7
2004-07-30 07:37:34 51°18.821 2°55.913 248.2 1.8 221 10.6
2004-07-30 07:37:39 51°18.82 2°55.911 248.2 1.7 222 10.7
2004-07-30 07:37:43 51°18.818 2°55.909 248.2 1.8 220 10.7
2004-07-30 07:37:50 51°18.816 2°55.905 248.4 1.8 222 10.6
2004-07-30 07:37:54 51°18.814 2°55.903 248.3 1.8 220 10.6
2004-07-30 07:37:59 51°18.812 2°55.9 248.3 1.7 222 10.6
2004-07-30 07:38:03 51°18.811 2°55.898 248.4 1.7 222 10.6
2004-07-30 07:38:09 51°18.809 2°55.895 248.4 1.8 222 10.8
2004-07-30 07:38:14 51°18.807 2°55.893 248.5 1.8 220 10.7
2004-07-30 07:38:19 51°18.805 2°55.89 248.6 1.7 222 10.8
2004-07-30 07:38:23 51°18.804 2°55.888 248.7 1.8 221 10.7
2004-07-30 07:38:29 51°18.801 2°55.885 248.7 1.8 220 10.7
2004-07-30 07:38:35 51°18.799 2°55.882 248.8 1.7 221 10.8
2004-07-30 07:38:39 51°18.798 2°55.88 248.9 1.7 222 10.8
2004-07-30 07:38:45 51°18.796 2°55.877 248.9 1.7 223 10.7
2004-07-30 07:38:50 51°18.794 2°55.875 248.8 1.6 219 10.6
2004-07-30 07:38:54 51°18.793 2°55.873 248.8 1.6 217 10.6
2004-07-30 07:38:59 51°18.791 2°55.871 248.9 1.5 216 10.6
2004-07-30 07:39:05 51°18.789 2°55.869 248.9 1.5 216 10.6
2004-07-30 07:39:09 51°18.788 2°55.867 248.9 1.4 215 10.6
2004-07-30 07:39:14 51°18.786 2°55.866 249.1 1.4 215 10.6
2004-07-30 07:39:19 51°18.784 2°55.864 249.2 1.4 213 10.7
2004-07-30 07:39:23 51°18.783 2°55.862 249.3 1.4 215 10.6
2004-07-30 07:39:30 51°18.781 2°55.86 249.3 1.4 215 10.6
2004-07-30 07:39:34 51°18.78 2°55.858 249.3 1.4 213 10.7
2004-07-30 07:39:39 51°18.778 2°55.856 249.3 1.4 215 10.7
2004-07-30 07:39:44 51°18.776 2°55.854 249.2 1.4 215 10.7
2004-07-30 07:39:49 51°18.774 2°55.853 248.9 1.4 215 10.6
2004-07-30 07:39:54 51°18.773 2°55.851 248.7 1.5 215 10.6
2004-07-30 07:39:59 51°18.771 2°55.849 248.5 1.5 216 10.7
2004-07-30 07:40:05 51°18.769 2°55.847 248.2 1.5 216 10.6
2004-07-30 07:40:09 51°18.768 2°55.845 248.1 1.5 216 10.6
2004-07-30 07:40:14 51°18.766 2°55.843 247.9 1.5 215 10.6
2004-07-30 07:40:19 51°18.765 2°55.841 247.6 1.5 216 10.6
2004-07-30 07:40:25 51°18.763 2°55.839 247.4 1.5 215 10.6
2004-07-30 07:40:29 51°18.762 2°55.837 247.1 1.5 215 10.6
2004-07-30 07:40:34 51°18.76 2°55.835 246.9 1.5 217 10.5
2004-07-30 07:40:38 51°18.758 2°55.834 246.9 1.5 216 10.5
2004-07-30 07:40:45 51°18.756 2°55.831 246.8 1.6 215 10.6
2004-07-30 07:40:49 51°18.755 2°55.829 246.7 1.5 216 10.6
2004-07-30 07:40:54 51°18.753 2°55.827 246.5 1.5 216 10.6
2004-07-30 07:40:59 51°18.751 2°55.825 246.3 1.6 215 10.6
2004-07-30 07:41:03 51°18.75 2°55.824 246 1.6 216 10.5
2004-07-30 07:41:09 51°18.748 2°55.821 245.9 1.5 217 10.5
2004-07-30 07:41:14 51°18.746 2°55.819 245.9 1.6 215 10.6
2004-07-30 07:41:19 51°18.744 2°55.817 245.8 1.6 217 10.7
2004-07-30 07:41:22 51°18.743 2°55.816 245.8 1.6 216 10.6
2004-07-30 07:41:29 51°18.741 2°55.813 245.8 1.6 215 10.6
2004-07-30 07:41:34 51°18.739 2°55.811 245.8 1.6 217 10.6
2004-07-30 07:41:39 51°18.737 2°55.809 245.8 1.7 210 10.6
2004-07-30 07:41:43 51°18.736 2°55.808 245.8 1.5 218 10.7
2004-07-30 07:41:50 51°18.734 2°55.805 245.8 1.6 213 10.7
2004-07-30 07:41:54 51°18.732 2°55.803 245.7 1.5 221 10.8
2004-07-30 07:41:59 51°18.731 2°55.801 245.5 1.6 215 10.8
2004-07-30 07:42:04 51°18.729 2°55.798 245.5 1.6 218 10.8
2004-07-30 07:42:09 51°18.727 2°55.796 245.5 1.6 215 10.9
2004-07-30 07:42:14 51°18.726 2°55.794 245.5 1.5 221 11
2004-07-30 07:42:19 51°18.724 2°55.792 245.5 1.6 217 11
2004-07-30 07:42:24 51°18.722 2°55.79 245.5 1.6 222 10.8
2004-07-30 07:42:30 51°18.72 2°55.787 245.6 1.8 220 10.8
2004-07-30 07:42:34 51°18.718 2°55.784 246 1.9 227 10.9
2004-07-30 07:42:39 51°18.716 2°55.781 247.1 2.1 225 11
2004-07-30 07:42:44 51°18.714 2°55.777 248.4 2.3 230 11
2004-07-30 07:42:49 51°18.712 2°55.772 250 2.6 232 10.9
2004-07-30 07:42:54 51°18.71 2°55.767 252 2.7 236 11
2004-07-30 07:42:59 51°18.708 2°55.762 254.1 2.8 237 11.1
2004-07-30 07:43:05 51°18.705 2°55.755 256.7 2.9 240 10.9
2004-07-30 07:43:09 51°18.704 2°55.749 259.3 3.4 245 10.9
2004-07-30 07:43:14 51°18.702 2°55.742 262.6 3.6 250 10.8
2004-07-30 07:43:19 51°18.701 2°55.734 266.6 3.9 253 10.8
2004-07-30 07:43:24 51°18.699 2°55.725 271 4 256 10.7
2004-07-30 07:43:29 51°18.699 2°55.715 275.5 4.4 263 10.7
2004-07-30 07:43:34 51°18.699 2°55.705 280.1 4.5 269 10.6
2004-07-30 07:43:39 51°18.699 2°55.694 284.6 5 274 10.6
2004-07-30 07:43:43 51°18.7 2°55.685 289.7 5.2 279 10.6
2004-07-30 07:43:49 51°18.702 2°55.671 295.4 5.4 285 10.5
2004-07-30 07:43:54 51°18.705 2°55.659 301.2 5.7 292 10.6
2004-07-30 07:43:59 51°18.709 2°55.648 307.3 5.8 297 10.7
2004-07-30 07:44:05 51°18.715 2°55.635 313.5 5.9 302 10.7
2004-07-30 07:44:10 51°18.72 2°55.625 318.6 6 313 10.9
2004-07-30 07:44:14 51°18.726 2°55.618 326.3 6.1 319 10.9
2004-07-30 07:44:19 51°18.732 2°55.611 332.9 6.1 325 10.9
2004-07-30 07:44:23 51°18.739 2°55.606 339.5 6.1 331 11
2004-07-30 07:44:30 51°18.75 2°55.6 346 6.1 343 10.9
2004-07-30 07:44:34 51°18.757 2°55.598 352.7 6.1 349 11
2004-07-30 07:44:39 51°18.765 2°55.597 358 6.1 358 11
2004-07-30 07:44:43 51°18.772 2°55.598 6.2 6.2 1 10.9
2004-07-30 07:44:50 51°18.784 2°55.602 13 6.4 14 11
2004-07-30 07:44:54 51°18.791 2°55.606 20.2 6.7 21 11
2004-07-30 07:44:59 51°18.8 2°55.613 27 7 26 10.7
2004-07-30 07:45:05 51°18.811 2°55.624 30.8 7.4 30 10.8
2004-07-30 07:45:09 51°18.818 2°55.633 36.2 8.3 38 10.9
2004-07-30 07:45:14 51°18.827 2°55.646 40.6 8.7 42 10.9
2004-07-30 07:45:19 51°18.837 2°55.661 44.6 9.4 44 10.8
2004-07-30 07:45:24 51°18.846 2°55.676 46.2 9.9 45 10.6
2004-07-30 07:45:29 51°18.857 2°55.692 46.4 10.1 45 10.7
2004-07-30 07:45:34 51°18.868 2°55.709 45.7 10.9 44 10.7
2004-07-30 07:45:39 51°18.879 2°55.727 45.9 11.2 45 10.7
2004-07-30 07:45:43 51°18.888 2°55.741 46.5 11.5 45 10.7
2004-07-30 07:45:49 51°18.902 2°55.764 47 11.8 45 10.7
2004-07-30 07:45:54 51°18.914 2°55.782 47.2 11.9 46 10.7
2004-07-30 07:45:59 51°18.925 2°55.801 47.7 12 46 10.6
2004-07-30 07:46:04 51°18.937 2°55.821 47.9 12.1 47 10.8
2004-07-30 07:46:09 51°18.948 2°55.84 48.4 12.2 46 10.7
2004-07-30 07:46:14 51°18.96 2°55.86 48.6 12.2 47 10.6
2004-07-30 07:46:19 51°18.972 2°55.88 49.1 12.3 47 10.7
2004-07-30 07:46:23 51°18.981 2°55.896 48.9 12.3 47 10.8
2004-07-30 07:46:29 51°18.995 2°55.92 49 12.3 48 10.9
2004-07-30 07:46:34 51°19.006 2°55.94 49.3 12.3 49 10.7
2004-07-30 07:46:39 51°19.017 2°55.961 50.2 12.3 49 10.7
2004-07-30 07:46:43 51°19.026 2°55.977 51 12.3 50 10.9
2004-07-30 07:46:49 51°19.04 2°56.003 51.6 12.4 51 10.8
2004-07-30 07:46:54 51°19.05 2°56.024 52.7 12.4 52 10.8
2004-07-30 07:46:59 51°19.061 2°56.046 53.3 12.4 52 10.7
2004-07-30 07:47:05 51°19.073 2°56.072 53.6 12.4 52 10.8
2004-07-30 07:47:09 51°19.082 2°56.09 54.4 12.4 53 10.8
2004-07-30 07:47:14 51°19.092 2°56.112 54.6 12.4 54 10.8
2004-07-30 07:47:19 51°19.102 2°56.133 54.6 12.4 53 10.8
2004-07-30 07:47:24 51°19.113 2°56.155 54.3 12.4 53 10.8
2004-07-30 07:47:29 51°19.123 2°56.177 54.2 12.4 53 10.8
2004-07-30 07:47:34 51°19.134 2°56.199 54.2 12.5 52 10.8
2004-07-30 07:47:39 51°19.144 2°56.22 53.9 12.4 52 10.9
2004-07-30 07:47:43 51°19.153 2°56.238 53.7 12.4 53 10.8
2004-07-30 07:47:49 51°19.165 2°56.264 53.9 12.4 53 10.8
2004-07-30 07:47:54 51°19.176 2°56.286 53.9 12.5 53 10.8
2004-07-30 07:47:59 51°19.186 2°56.307 53.9 12.5 53 10.8
2004-07-30 07:48:03 51°19.195 2°56.325 54.1 12.5 53 10.9
2004-07-30 07:48:09 51°19.207 2°56.351 54.4 12.5 53 10.9
2004-07-30 07:48:15 51°19.22 2°56.378 54.3 12.5 53 10.9
2004-07-30 07:48:19 51°19.228 2°56.396 54.3 12.5 54 10.9
2004-07-30 07:48:24 51°19.238 2°56.418 54.4 12.4 53 10.9
2004-07-30 07:48:29 51°19.247 2°56.441 56.8 12.5 59 10.8
2004-07-30 07:48:34 51°19.256 2°56.465 59.8 12.5 61 10.8
2004-07-30 07:48:39 51°19.263 2°56.49 62.2 12.5 63 10.8
2004-07-30 07:48:43 51°19.269 2°56.51 63.8 12.5 64 10.8
2004-07-30 07:48:49 51°19.278 2°56.54 65.3 12.5 67 10.7
2004-07-30 07:48:54 51°19.284 2°56.566 66.5 12.5 67 10.7
2004-07-30 07:48:59 51°19.29 2°56.592 68 12.5 69 10.8
2004-07-30 07:49:03 51°19.295 2°56.612 68.9 12.5 70 10.7
2004-07-30 07:49:09 51°19.302 2°56.644 70 12.5 71 10.8
2004-07-30 07:49:14 51°19.308 2°56.67 70.4 12.5 71 10.7
2004-07-30 07:49:19 51°19.314 2°56.696 70.4 12.5 71 10.6
2004-07-30 07:49:25 51°19.32 2°56.728 70.5 12.5 71 10.7
2004-07-30 07:49:29 51°19.325 2°56.748 70.4 12.5 70 10.7
2004-07-30 07:49:34 51°19.331 2°56.774 69.6 12.5 70 10.7
2004-07-30 07:49:39 51°19.338 2°56.8 68.9 12.4 69 10.7
2004-07-30 07:49:43 51°19.343 2°56.82 68.2 12.5 68 10.6
2004-07-30 07:49:50 51°19.352 2°56.856 67.9 12.4 68 10.6
2004-07-30 07:49:55 51°19.358 2°56.881 67.6 12.4 67 10.6
2004-07-30 07:49:59 51°19.364 2°56.902 67.2 12.4 68 10.7
2004-07-30 07:50:04 51°19.37 2°56.927 67.2 12.5 67 10.6
2004-07-30 07:50:09 51°19.377 2°56.952 67.1 12.4 68 10.6
2004-07-30 07:50:14 51°19.383 2°56.978 67.3 12.4 69 10.6
2004-07-30 07:50:19 51°19.39 2°57.003 68.1 12.4 68 10.6
2004-07-30 07:50:23 51°19.395 2°57.024 68.1 12.4 68 10.6
2004-07-30 07:50:30 51°19.403 2°57.06 68.4 12.4 69 10.6
2004-07-30 07:50:34 51°19.408 2°57.081 68.7 12.4 70 10.5
2004-07-30 07:50:39 51°19.414 2°57.106 68.7 12.4 69 10.5
2004-07-30 07:50:44 51°19.421 2°57.132 68.5 12.4 69 10.5
2004-07-30 07:50:49 51°19.427 2°57.157 67.9 12.4 67 10.4
2004-07-30 07:50:55 51°19.435 2°57.187 67.3 12.4 67 10.4
2004-07-30 07:50:59 51°19.441 2°57.207 66.5 12.3 66 10.4
2004-07-30 07:51:03 51°19.446 2°57.227 66.3 12.4 66 10.5
2004-07-30 07:51:09 51°19.454 2°57.257 66.3 12.4 68 10.5
2004-07-30 07:51:14 51°19.461 2°57.282 67 12.4 67 10.4
2004-07-30 07:51:19 51°19.467 2°57.308 67.5 12.4 68 10.5
2004-07-30 07:51:24 51°19.474 2°57.333 67.9 12.4 68 10.5
2004-07-30 07:51:29 51°19.48 2°57.359 68.2 12.4 69 10.4
2004-07-30 07:51:34 51°19.486 2°57.384 68.2 12.4 68 10.4
2004-07-30 07:51:39 51°19.492 2°57.41 68.3 12.4 69 10.4
2004-07-30 07:51:44 51°19.499 2°57.436 68.5 12.4 68 10.4
2004-07-30 07:51:49 51°19.505 2°57.461 68.7 12.4 68 10.4
2004-07-30 07:51:55 51°19.513 2°57.492 68.2 12.4 67 10.4
2004-07-30 07:51:59 51°19.518 2°57.512 67.6 12.3 68 10.3
2004-07-30 07:52:03 51°19.523 2°57.532 67.6 12.3 67 10.4
2004-07-30 07:52:09 51°19.531 2°57.562 66.9 12.4 67 10.4
2004-07-30 07:52:14 51°19.538 2°57.588 67 12.3 67 10.3
2004-07-30 07:52:19 51°19.545 2°57.612 67.1 12.3 67 10.4
2004-07-30 07:52:24 51°19.551 2°57.638 67.5 12.3 68 10.3
2004-07-30 07:52:29 51°19.557 2°57.663 67.8 12.3 68 10.3
2004-07-30 07:52:34 51°19.564 2°57.688 68.1 12.3 68 10.3
2004-07-30 07:52:39 51°19.57 2°57.713 67.6 12.3 67 10.3
2004-07-30 07:52:43 51°19.576 2°57.733 67.2 12.2 67 10.3
2004-07-30 07:52:49 51°19.584 2°57.763 66.9 12.2 67 10.3
2004-07-30 07:52:55 51°19.592 2°57.792 66.7 12.2 66 10.3
2004-07-30 07:52:59 51°19.597 2°57.812 66.7 12.2 67 10.3
2004-07-30 07:53:03 51°19.602 2°57.832 67.4 12.2 67 10.3
2004-07-30 07:53:10 51°19.611 2°57.867 67.5 12.2 68 10.2
2004-07-30 07:53:14 51°19.617 2°57.887 67.7 12.2 67 10.2
2004-07-30 07:53:19 51°19.623 2°57.912 68 12.2 69 10.2
2004-07-30 07:53:23 51°19.628 2°57.932 68.8 12.2 69 10.1
2004-07-30 07:53:30 51°19.636 2°57.968 69.2 12.2 70 10.2
2004-07-30 07:53:34 51°19.641 2°57.988 69.1 12.2 68 10.2
2004-07-30 07:53:39 51°19.647 2°58.013 68.9 12.2 70 10.2
2004-07-30 07:53:43 51°19.652 2°58.033 68.9 12.2 68 10.1
2004-07-30 07:53:49 51°19.659 2°58.063 68.4 12.2 69 10.1
2004-07-30 07:53:54 51°19.666 2°58.088 68.5 12.2 67 10.2
2004-07-30 07:54:00 51°19.673 2°58.118 68.2 12.2 69 10.1
2004-07-30 07:54:04 51°19.679 2°58.138 68.5 12.2 68 10.1
2004-07-30 07:54:09 51°19.685 2°58.163 68.5 12.2 67 10.1
2004-07-30 07:54:14 51°19.692 2°58.188 67.8 12.2 67 10
2004-07-30 07:54:19 51°19.698 2°58.213 67.6 12.2 68 10.1
2004-07-30 07:54:23 51°19.703 2°58.233 67.6 12.2 67 10.2
2004-07-30 07:54:30 51°19.712 2°58.268 68.1 12.2 68 10.1
2004-07-30 07:54:34 51°19.718 2°58.288 68.2 12.2 67 10.1
2004-07-30 07:54:39 51°19.724 2°58.313 68.1 12.2 68 10
2004-07-30 07:54:43 51°19.729 2°58.333 68.3 12.2 68 10.1
2004-07-30 07:54:49 51°19.737 2°58.363 68.5 12.2 68 10.1
2004-07-30 07:54:54 51°19.743 2°58.388 68.6 12.3 68 10.1
2004-07-30 07:54:59 51°19.75 2°58.413 68.9 12.3 68 10
2004-07-30 07:55:04 51°19.756 2°58.438 68.6 12.2 68 9.9
2004-07-30 07:55:10 51°19.764 2°58.469 68.3 12.2 67 10
2004-07-30 07:55:14 51°19.769 2°58.489 68.1 12.3 68 10
2004-07-30 07:55:19 51°19.776 2°58.514 68.3 12.3 68 10
2004-07-30 07:55:24 51°19.782 2°58.539 68.2 12.3 67 10.1
2004-07-30 07:55:30 51°19.79 2°58.569 68.2 12.3 67 10
2004-07-30 07:55:34 51°19.795 2°58.589 68.2 12.3 67 10.1
2004-07-30 07:55:39 51°19.802 2°58.614 68.1 12.3 67 10.1
2004-07-30 07:55:43 51°19.807 2°58.635 67.8 12.3 66 10
2004-07-30 07:55:50 51°19.817 2°58.67 67.7 12.3 67 10.1
2004-07-30 07:55:54 51°19.822 2°58.69 67.9 12.3 68 10
2004-07-30 07:55:59 51°19.829 2°58.715 68.2 12.4 68 10
2004-07-30 07:56:04 51°19.835 2°58.741 68.5 12.4 68 10
2004-07-30 07:56:08 51°19.84 2°58.761 68.9 12.4 68 10
2004-07-30 07:56:14 51°19.848 2°58.792 68.9 12.4 69 9.9
2004-07-30 07:56:19 51°19.854 2°58.817 69.3 12.4 68 9.9
2004-07-30 07:56:25 51°19.861 2°58.848 69.3 12.5 69 9.9
2004-07-30 07:56:29 51°19.866 2°58.868 69.7 12.4 69 10
2004-07-30 07:56:34 51°19.873 2°58.894 69.7 12.4 69 9.9
2004-07-30 07:56:39 51°19.879 2°58.919 69.2 12.4 68 9.8
2004-07-30 07:56:43 51°19.884 2°58.94 68.6 12.4 68 9.9
2004-07-30 07:56:49 51°19.893 2°58.97 68.1 12.4 67 9.9
2004-07-30 07:56:54 51°19.899 2°58.995 68 12.4 67 9.8
2004-07-30 07:56:59 51°19.906 2°59.021 67.7 12.4 66 9.8
2004-07-30 07:57:04 51°19.913 2°59.046 67.5 12.4 67 9.9
2004-07-30 07:57:09 51°19.92 2°59.071 67.4 12.4 66 9.9
2004-07-30 07:57:14 51°19.927 2°59.096 67.6 12.4 67 10
2004-07-30 07:57:19 51°19.934 2°59.122 67.6 12.5 66 9.8
2004-07-30 07:57:23 51°19.939 2°59.142 67.7 12.5 67 9.9
2004-07-30 07:57:29 51°19.947 2°59.172 67.6 12.5 67 9.8
2004-07-30 07:57:34 51°19.954 2°59.198 67.8 12.5 67 9.9
2004-07-30 07:57:39 51°19.96 2°59.224 68.4 12.5 68 9.8
2004-07-30 07:57:43 51°19.965 2°59.244 68.9 12.4 69 9.9
2004-07-30 07:57:49 51°19.973 2°59.275 69.6 12.5 70 10
2004-07-30 07:57:54 51°19.979 2°59.301 70.3 12.5 69 9.9
2004-07-30 07:57:59 51°19.985 2°59.327 70.4 12.5 70 10
2004-07-30 07:58:03 51°19.989 2°59.347 70.3 12.5 70 9.8
2004-07-30 07:58:09 51°19.997 2°59.378 70 12.4 69 9.9
2004-07-30 07:58:14 51°20.003 2°59.404 69.6 12.5 68 9.9
2004-07-30 07:58:19 51°20.01 2°59.429 69.1 12.4 68 9.8
2004-07-30 07:58:24 51°20.016 2°59.454 68.9 12.4 68 9.9
2004-07-30 07:58:29 51°20.023 2°59.48 68.4 12.4 68 9.8
2004-07-30 07:58:34 51°20.029 2°59.505 68.3 12.5 67 9.9
2004-07-30 07:58:39 51°20.036 2°59.531 68.2 12.4 67 9.9
2004-07-30 07:58:43 51°20.041 2°59.551 68.1 12.4 67 9.8
2004-07-30 07:58:49 51°20.049 2°59.581 68.2 12.4 68 9.7
2004-07-30 07:58:54 51°20.055 2°59.607 68.6 12.4 68 9.9
2004-07-30 07:58:59 51°20.061 2°59.632 69.2 12.4 69 9.9
2004-07-30 07:59:03 51°20.067 2°59.653 69.5 12.4 69 9.9
2004-07-30 07:59:10 51°20.075 2°59.688 69.5 12.4 69 9.8
2004-07-30 07:59:14 51°20.08 2°59.709 69.9 12.4 69 9.9
2004-07-30 07:59:19 51°20.086 2°59.735 70.1 12.4 70 9.8
2004-07-30 07:59:24 51°20.092 2°59.76 70.3 12.4 70 9.7
2004-07-30 07:59:29 51°20.098 2°59.786 70.3 12.4 70 9.9
2004-07-30 07:59:34 51°20.104 2°59.812 70.3 12.4 69 9.9
2004-07-30 07:59:39 51°20.11 2°59.838 70 12.4 69 9.7
2004-07-30 07:59:43 51°20.115 2°59.858 69.7 12.4 69 9.8
2004-07-30 07:59:49 51°20.123 2°59.889 69.3 12.3 69 9.8
2004-07-30 07:59:54 51°20.129 2°59.914 68.9 12.3 68 9.8
2004-07-30 07:59:59 51°20.136 2°59.939 68.5 12.4 68 9.8
2004-07-30 08:00:05 51°20.144 2°59.97 68.5 12.5 67 9.8
2004-07-30 08:00:09 51°20.149 2°59.99 68.2 12.4 69 9.8
2004-07-30 08:00:14 51°20.155 3°0.016 68.7 12.4 68 9.8
2004-07-30 08:00:19 51°20.162 3°0.042 68.9 12.5 69 9.8
2004-07-30 08:00:23 51°20.167 3°0.062 69.6 12.5 69 9.7
2004-07-30 08:00:30 51°20.175 3°0.099 69.9 12.5 70 9.9
2004-07-30 08:00:34 51°20.18 3°0.119 70.4 12.5 70 9.7
2004-07-30 08:00:39 51°20.186 3°0.145 71.1 12.5 71 9.8
2004-07-30 08:00:43 51°20.19 3°0.166 71.1 12.5 71 9.9
2004-07-30 08:00:50 51°20.199 3°0.203 71.1 12.5 70 9.9
2004-07-30 08:00:54 51°20.204 3°0.224 70.8 12.5 70 9.8
2004-07-30 08:00:59 51°20.21 3°0.25 70.7 12.6 69 9.8
2004-07-30 08:01:03 51°20.215 3°0.27 70 12.6 69 9.8
2004-07-30 08:01:10 51°20.224 3°0.306 69.4 12.6 68 9.8
2004-07-30 08:01:14 51°20.229 3°0.327 68.9 12.5 67 9.8
2004-07-30 08:01:19 51°20.236 3°0.353 68.3 12.6 67 9.7
2004-07-30 08:01:25 51°20.244 3°0.383 67.7 12.6 67 9.8
2004-07-30 08:01:29 51°20.25 3°0.403 67.1 12.5 67 9.7
2004-07-30 08:01:34 51°20.257 3°0.429 67.1 12.6 66 9.7
2004-07-30 08:01:39 51°20.264 3°0.454 66.8 12.6 66 9.8
2004-07-30 08:01:43 51°20.27 3°0.474 67 12.6 67 9.7
2004-07-30 08:01:49 51°20.278 3°0.505 67.5 12.6 68 9.8
2004-07-30 08:01:54 51°20.285 3°0.531 68 12.6 68 9.8
2004-07-30 08:01:59 51°20.291 3°0.557 68.3 12.7 68 9.8
2004-07-30 08:02:03 51°20.296 3°0.578 68.9 12.6 68 9.8
2004-07-30 08:02:10 51°20.305 3°0.614 69.1 12.6 69 9.8
2004-07-30 08:02:14 51°20.31 3°0.635 69.5 12.7 70 9.8
2004-07-30 08:02:19 51°20.316 3°0.662 69.8 12.7 69 9.7
2004-07-30 08:02:23 51°20.321 3°0.683 69.7 12.7 70 9.7
2004-07-30 08:02:29 51°20.329 3°0.714 69.7 12.7 69 9.8
2004-07-30 08:02:34 51°20.335 3°0.74 69.7 12.7 69 9.7
2004-07-30 08:02:39 51°20.341 3°0.766 69.8 12.7 69 9.7
2004-07-30 08:02:45 51°20.349 3°0.798 69.5 12.7 69 9.8
2004-07-30 08:02:49 51°20.354 3°0.819 69.4 12.7 68 9.9
2004-07-30 08:02:54 51°20.361 3°0.844 68.8 12.7 67 9.7
2004-07-30 08:02:59 51°20.368 3°0.87 68.3 12.7 67 9.8
2004-07-30 08:03:03 51°20.373 3°0.891 68.1 12.7 67 9.7
2004-07-30 08:03:09 51°20.381 3°0.922 68.2 12.7 68 9.7
2004-07-30 08:03:14 51°20.388 3°0.948 68.6 12.7 68 9.7
2004-07-30 08:03:19 51°20.394 3°0.975 69.1 12.7 69 9.8
2004-07-30 08:03:24 51°20.401 3°1.001 69.2 12.7 68 9.7
2004-07-30 08:03:29 51°20.408 3°1.027 69.2 12.8 68 9.7
2004-07-30 08:03:34 51°20.414 3°1.053 69.2 12.8 69 9.7
2004-07-30 08:03:39 51°20.421 3°1.079 69.2 12.8 68 9.7
2004-07-30 08:03:43 51°20.426 3°1.1 69 12.7 69 9.7
2004-07-30 08:03:49 51°20.434 3°1.131 68.8 12.7 68 9.8
2004-07-30 08:03:54 51°20.441 3°1.158 68.6 12.7 68 9.7
2004-07-30 08:03:59 51°20.447 3°1.184 68.3 12.7 68 9.6
2004-07-30 08:04:05 51°20.455 3°1.214 68.2 12.6 68 9.7
2004-07-30 08:04:10 51°20.462 3°1.241 68.2 12.7 69 9.7
2004-07-30 08:04:14 51°20.467 3°1.262 69.1 12.7 69 9.7
2004-07-30 08:04:19 51°20.473 3°1.288 70.1 12.7 71 9.7
2004-07-30 08:04:25 51°20.479 3°1.32 71.5 12.7 72 9.7
2004-07-30 08:04:29 51°20.483 3°1.342 72.6 12.7 73 9.7
2004-07-30 08:04:34 51°20.488 3°1.369 73.2 12.7 73 9.6
2004-07-30 08:04:39 51°20.493 3°1.396 73.3 12.7 73 9.6
2004-07-30 08:04:43 51°20.497 3°1.417 73.4 12.7 73 9.6
2004-07-30 08:04:49 51°20.504 3°1.449 73 12.6 72 9.6
2004-07-30 08:04:54 51°20.51 3°1.476 72.1 12.6 71 9.6
2004-07-30 08:04:59 51°20.515 3°1.502 71.6 12.6 71 9.6
2004-07-30 08:05:04 51°20.521 3°1.529 71 12.7 70 9.7
2004-07-30 08:05:09 51°20.527 3°1.555 70.6 12.6 70 9.6
2004-07-30 08:05:14 51°20.534 3°1.581 70.5 12.6 70 9.6
2004-07-30 08:05:19 51°20.54 3°1.608 70.4 12.7 70 9.7
2004-07-30 08:05:23 51°20.544 3°1.629 70.7 12.7 70 9.6
2004-07-30 08:05:29 51°20.551 3°1.661 71.3 12.7 71 9.6
2004-07-30 08:05:34 51°20.557 3°1.688 72.1 12.7 72 9.7
2004-07-30 08:05:39 51°20.562 3°1.714 72.5 12.8 72 9.6
2004-07-30 08:05:43 51°20.567 3°1.736 73 12.8 72 9.7
2004-07-30 08:05:50 51°20.574 3°1.773 73 12.7 72 9.6
2004-07-30 08:05:54 51°20.579 3°1.795 72.6 12.7 72 9.7
2004-07-30 08:05:59 51°20.584 3°1.822 72.3 12.8 71 9.7
2004-07-30 08:06:03 51°20.589 3°1.843 71.5 12.8 70 9.6
2004-07-30 08:06:10 51°20.598 3°1.88 71 12.8 70 9.7
2004-07-30 08:06:14 51°20.603 3°1.901 70.4 12.7 69 9.7
2004-07-30 08:06:19 51°20.609 3°1.928 70.2 12.7 70 9.7
2004-07-30 08:06:23 51°20.614 3°1.949 70.7 12.8 70 9.8
2004-07-30 08:06:29 51°20.621 3°1.981 70.7 12.7 70 9.8
2004-07-30 08:06:34 51°20.627 3°2.007 70.9 12.8 70 9.8
2004-07-30 08:06:39 51°20.633 3°2.034 71.1 12.8 71 9.8
2004-07-30 08:06:45 51°20.64 3°2.066 71.5 12.8 71 9.7
2004-07-30 08:06:49 51°20.645 3°2.088 72.1 12.8 71 9.8
2004-07-30 08:06:54 51°20.65 3°2.114 72.4 12.8 71 9.7
2004-07-30 08:06:59 51°20.656 3°2.142 72.4 12.8 72 9.8
2004-07-30 08:07:03 51°20.661 3°2.163 72.4 12.8 71 9.8
2004-07-30 08:07:09 51°20.668 3°2.195 71.8 12.9 70 9.8
2004-07-30 08:07:14 51°20.674 3°2.222 71.2 12.9 69 9.8
2004-07-30 08:07:19 51°20.681 3°2.248 70.3 12.9 68 9.8
2004-07-30 08:07:23 51°20.686 3°2.269 69.7 12.9 69 9.8
2004-07-30 08:07:29 51°20.694 3°2.301 70.1 13 69 9.8
2004-07-30 08:07:34 51°20.7 3°2.328 70.4 13 69 9.8
2004-07-30 08:07:39 51°20.706 3°2.355 71 12.9 70 9.9
2004-07-30 08:07:45 51°20.713 3°2.388 71.5 12.9 71 9.8
2004-07-30 08:07:50 51°20.719 3°2.415 72.1 12.9 71 9.8
2004-07-30 08:07:54 51°20.724 3°2.436 72.2 12.9 71 9.9
2004-07-30 08:07:59 51°20.73 3°2.463 72.3 12.9 71 9.9
2004-07-30 08:08:05 51°20.737 3°2.496 72.2 12.9 71 9.8
2004-07-30 08:08:09 51°20.742 3°2.517 72.1 12.9 71 9.8
2004-07-30 08:08:14 51°20.748 3°2.544 71.8 12.9 70 9.9
2004-07-30 08:08:19 51°20.754 3°2.571 71.6 12.9 70 9.8
2004-07-30 08:08:23 51°20.759 3°2.592 71.1 12.8 69 9.9
2004-07-30 08:08:29 51°20.766 3°2.624 71 12.9 70 9.9
2004-07-30 08:08:34 51°20.772 3°2.651 71.1 12.9 70 9.8
2004-07-30 08:08:39 51°20.779 3°2.678 71.2 12.9 70 9.9